Time;durP1;ratioP1;P1;durP2;ratioP2;P2;SDS_P1;SDS_P2;PMS_P1;PMS_P2;Temp;Humidity;BMP_temperature;BMP_pressure;BME280_temperature;BME280_humidity;BME280_pressure;Samples;Min_cycle;Max_cycle;Signal;HPM_P1;HPM_P2
2022/09/19 00:02:08;;;;;;;12.95;6.05;;;;;;;6.58;100.00;97130.27;1783349;80;20972;-87
2022/09/19 00:04:35;;;;;;;9.40;5.08;;;;;;;6.63;100.00;97136.16;1783645;80;21549;-87
2022/09/19 00:07:01;;;;;;;10.55;5.55;;;;;;;6.66;100.00;97132.91;1783222;80;20996;-86
2022/09/19 00:09:30;;;;;;;7.92;4.58;;;;;;;6.69;100.00;97127.80;1783298;80;21065;-86
2022/09/19 00:11:56;;;;;;;;;;;;;;;6.72;100.00;97135.84;1781144;80;21378;-85
2022/09/19 00:14:27;;;;;;;8.03;4.28;;;;;;;6.74;100.00;97129.09;1783589;80;20137;-85
2022/09/19 00:17:02;;;;;;;13.50;8.45;;;;;;;6.77;100.00;97129.91;1783385;80;20910;-86
2022/09/19 00:19:28;;;;;;;8.05;5.87;;;;;;;6.81;100.00;97130.69;1782276;80;21012;-85
2022/09/19 00:21:57;;;;;;;12.20;8.05;;;;;;;6.82;100.00;97131.75;1783152;80;21108;-87
2022/09/19 00:27:09;;;;;;;13.28;7.83;;;;;;;6.83;100.00;97125.28;1781774;80;20419;-84
2022/09/19 00:29:37;;;;;;;11.95;7.33;;;;;;;6.87;100.00;97128.25;1781976;80;20958;-85
2022/09/19 00:32:11;;;;;;;14.13;6.58;;;;;;;6.91;100.00;97127.40;1781616;80;21064;-84
2022/09/19 00:34:35;;;;;;;8.65;5.05;;;;;;;6.93;100.00;97128.49;1781081;80;21982;-85
2022/09/19 00:37:01;;;;;;;10.00;5.50;;;;;;;6.96;100.00;97131.42;1781441;80;20929;-86
2022/09/19 00:39:27;;;;;;;9.05;4.92;;;;;;;6.97;100.00;97129.53;1781993;80;20929;-87
2022/09/19 00:41:53;;;;;;;9.38;4.95;;;;;;;6.97;100.00;97130.88;1782396;80;20926;-84
2022/09/19 00:44:28;;;;;;;10.32;6.20;;;;;;;7.01;100.00;97130.61;1783702;80;20946;-87
2022/09/19 00:47:08;;;;;;;13.75;6.40;;;;;;;7.03;100.00;97129.23;1783282;80;21259;-84
2022/09/19 00:49:37;;;;;;;14.10;8.45;;;;;;;7.04;100.00;97134.08;1783536;80;20965;-87
2022/09/19 00:52:07;;;;;;;12.05;6.90;;;;;;;7.05;100.00;97130.30;1783624;80;20984;-86
2022/09/19 00:54:36;;;;;;;12.55;6.97;;;;;;;7.08;100.00;97121.66;1783553;80;21004;-87
2022/09/19 00:57:03;;;;;;;;;;;;;;;7.03;100.00;97127.09;1785916;80;21466;-88
2022/09/19 00:59:31;;;;;;;14.73;8.43;;;;;;;7.00;100.00;97124.38;1783692;80;21100;-86
2022/09/19 01:01:57;;;;;;;11.00;6.00;;;;;;;6.99;100.00;97126.02;1778671;80;20981;-86
2022/09/19 01:04:25;;;;;;;11.10;6.75;;;;;;;6.96;100.00;97121.20;1783430;80;20916;-85
2022/09/19 01:07:10;;;;;;;13.83;6.33;;;;;;;6.96;100.00;97126.58;1753128;80;20918;-84
2022/09/19 01:09:58;;;;;;;11.88;7.20;;;;;;;6.96;100.00;97122.55;1783692;80;21012;-87
2022/09/19 01:12:58;;;;;;;11.88;7.40;;;;;;;6.94;100.00;97118.78;1783533;80;21524;-86
2022/09/19 01:15:33;;;;;;;14.18;7.53;;;;;;;6.91;100.00;97117.97;1783482;80;20997;-88
2022/09/19 01:18:01;;;;;;;11.40;7.55;;;;;;;6.98;100.00;97116.33;1783397;80;21476;-87
2022/09/19 01:20:42;;;;;;;13.48;8.75;;;;;;;6.98;100.00;97109.59;1753379;80;21063;-87
2022/09/19 01:23:29;;;;;;;17.55;8.90;;;;;;;6.98;100.00;97117.67;1782616;80;21449;-85
2022/09/19 01:26:33;;;;;;;15.30;8.08;;;;;;;6.97;100.00;97115.52;1769615;79;22023;-87
2022/09/19 01:29:18;;;;;;;17.37;8.18;;;;;;;6.92;100.00;97117.43;1781729;80;20985;-84
2022/09/19 01:31:47;;;;;;;15.83;7.78;;;;;;;6.94;100.00;97122.83;1781778;80;21025;-87
2022/09/19 01:34:33;;;;;;;14.93;8.90;;;;;;;6.93;100.00;97140.07;1781823;80;20961;-85
2022/09/19 01:37:16;;;;;;;13.20;7.15;;;;;;;6.93;100.00;97139.27;1751407;80;20970;-88
2022/09/19 01:39:46;;;;;;;5.05;3.40;;;;;;;6.93;100.00;97140.61;1782061;80;21112;-87
2022/09/19 01:42:19;;;;;;;2.40;1.60;;;;;;;6.97;100.00;97141.66;1782710;80;21000;-84
2022/09/19 01:44:44;;;;;;;1.95;1.20;;;;;;;7.08;100.00;97144.00;1783511;80;21301;-87
2022/09/19 01:47:31;;;;;;;2.20;1.30;;;;;;;7.19;100.00;97146.12;1783331;80;21441;-87
2022/09/19 01:50:14;;;;;;;1.27;0.80;;;;;;;7.25;100.00;97144.18;1783548;80;21488;-85
2022/09/19 01:53:05;;;;;;;1.50;1.00;;;;;;;7.30;100.00;97142.81;1783330;80;21179;-85
2022/09/19 01:55:48;;;;;;;1.10;0.88;;;;;;;7.35;100.00;97145.48;1783529;79;20943;-84
2022/09/19 01:58:28;;;;;;;1.60;1.20;;;;;;;7.40;100.00;97141.39;1783565;80;21028;-85
2022/09/19 02:01:08;;;;;;;1.37;0.90;;;;;;;7.45;100.00;97145.41;1783046;80;20985;-85
2022/09/19 02:04:10;;;;;;;1.07;0.78;;;;;;;7.50;100.00;97142.66;1783605;80;21528;-86
2022/09/19 02:06:59;;;;;;;0.88;0.80;;;;;;;7.54;100.00;97145.08;1783013;80;21957;-86
2022/09/19 02:09:44;;;;;;;1.20;0.42;;;;;;;7.55;100.00;97145.88;1783671;80;21135;-84
2022/09/19 02:12:12;;;;;;;0.53;0.50;;;;;;;7.55;100.00;97148.03;1783404;80;21425;-87
2022/09/19 02:14:39;;;;;;;1.17;0.60;;;;;;;7.55;100.00;97148.03;1783759;80;20978;-85
2022/09/19 02:17:07;;;;;;;0.90;0.60;;;;;;;7.52;100.00;97149.11;1783367;80;21533;-87
2022/09/19 02:19:38;;;;;;;1.02;0.80;;;;;;;7.52;100.00;97146.42;1783839;80;21281;-87
2022/09/19 02:22:08;;;;;;;0.82;0.70;;;;;;;7.51;100.00;97152.36;1783061;80;21224;-85
2022/09/19 02:24:36;;;;;;;1.10;0.82;;;;;;;7.48;100.00;97155.63;1782032;80;21338;-87
2022/09/19 02:27:17;;;;;;;2.15;1.00;;;;;;;7.48;100.00;97158.32;1781821;80;21012;-87
2022/09/19 02:29:46;;;;;;;2.02;1.30;;;;;;;7.45;100.00;97157.54;1781981;80;20985;-86
2022/09/19 02:32:13;;;;;;;1.47;0.98;;;;;;;7.45;100.00;97162.93;1781676;80;21111;-86
2022/09/19 02:34:39;;;;;;;1.50;0.93;;;;;;;7.43;100.00;97165.08;1781897;80;21276;-85
2022/09/19 02:37:09;;;;;;;4.78;1.47;;;;;;;7.44;100.00;97164.56;1781761;80;20850;-86
2022/09/19 02:39:57;;;;;;;1.98;1.47;;;;;;;7.45;100.00;97164.83;1780812;80;20969;-87
2022/09/19 02:42:43;;;;;;;2.98;1.30;;;;;;;7.44;100.00;97165.37;1782875;80;20906;-87
2022/09/19 02:45:20;;;;;;;3.15;1.37;;;;;;;7.45;100.00;97179.65;1783656;80;21122;-86
2022/09/19 02:47:58;;;;;;;3.27;1.90;;;;;;;7.44;100.00;97172.66;1783274;80;21004;-85
2022/09/19 02:50:39;;;;;;;2.58;2.00;;;;;;;7.46;100.00;97175.86;1783608;80;21000;-86
2022/09/19 02:53:09;;;;;;;3.45;2.52;;;;;;;7.45;100.00;97180.45;1783547;80;21426;-85
2022/09/19 02:55:42;;;;;;;3.92;2.80;;;;;;;7.45;100.00;97181.00;1783650;80;21528;-85
2022/09/19 02:58:07;;;;;;;3.22;2.02;;;;;;;7.44;100.00;97185.59;1783112;80;21155;-85
2022/09/19 03:00:33;;;;;;;6.53;2.27;;;;;;;7.44;100.00;97182.09;1783648;80;21452;-87
2022/09/19 03:04:11;;;;;;;3.52;1.85;;;;;;;7.43;100.00;97188.53;1783185;80;21417;-84
2022/09/19 03:05:32;;;;;;;3.95;2.65;;;;;;;7.44;100.00;97187.48;1778970;80;20941;-85
2022/09/19 03:08:05;;;;;;;2.90;2.10;;;;;;;7.38;100.00;97190.73;1783199;80;20957;-87
2022/09/19 03:10:35;;;;;;;4.25;1.92;;;;;;;7.39;100.00;97195.04;1778650;80;21123;-85
2022/09/19 03:13:05;;;;;;;4.05;2.12;;;;;;;7.44;100.00;97194.22;1783286;80;21004;-85
2022/09/19 03:15:50;;;;;;;3.47;2.08;;;;;;;7.41;100.00;97197.45;1783693;80;20954;-87
2022/09/19 03:18:17;;;;;;;2.92;2.37;;;;;;;7.42;100.00;97200.41;1782570;80;21040;-87
2022/09/19 03:20:56;;;;;;;4.35;3.37;;;;;;;7.41;100.00;97201.49;1783715;80;21461;-85
2022/09/19 03:23:29;;;;;;;2.58;2.00;;;;;;;7.43;100.00;97204.70;1782367;80;21307;-85
2022/09/19 03:25:55;;;;;;;3.62;1.85;;;;;;;7.46;100.00;97213.06;1780412;79;20996;-87
2022/09/19 03:28:22;;;;;;;2.27;1.95;;;;;;;7.45;100.00;97218.73;1781826;80;20842;-85
2022/09/19 03:30:48;;;;;;;3.92;2.30;;;;;;;7.44;100.00;97219.83;1781806;79;21445;-87
2022/09/19 03:33:16;;;;;;;2.92;1.98;;;;;;;7.44;100.00;97214.43;1781760;80;20972;-86
2022/09/19 03:35:43;;;;;;;3.25;2.05;;;;;;;7.44;100.00;97215.78;1782012;80;22042;-87
2022/09/19 03:38:10;;;;;;;4.30;2.80;;;;;;;7.45;100.00;97216.84;1781404;80;20934;-85
2022/09/19 03:40:37;;;;;;;3.35;2.70;;;;;;;7.45;100.00;97211.45;1782007;80;21435;-84
2022/09/19 03:43:05;;;;;;;6.20;2.67;;;;;;;7.48;100.00;97212.23;1783243;80;20989;-87
2022/09/19 03:45:31;;;;;;;5.28;2.83;;;;;;;7.51;100.00;97210.86;1778744;80;21008;-85
2022/09/19 03:47:57;;;;;;;5.20;2.75;;;;;;;7.52;100.00;97211.95;1783277;80;21725;-85
2022/09/19 03:50:23;;;;;;;3.55;2.22;;;;;;;7.55;100.00;97215.42;1783542;80;20845;-85
2022/09/19 03:52:49;;;;;;;7.50;2.37;;;;;;;7.55;100.00;97209.23;1783299;80;20945;-86
2022/09/19 03:55:15;;;;;;;3.37;2.25;;;;;;;7.53;100.00;97208.72;1783526;80;21487;-84
2022/09/19 03:57:41;;;;;;;2.65;2.08;;;;;;;7.51;100.00;97209.52;1783329;80;20973;-85
2022/09/19 04:00:09;;;;;;;4.67;2.17;;;;;;;7.50;100.00;97213.30;1783426;80;21782;-85
2022/09/19 04:02:35;;;;;;;2.80;1.80;;;;;;;7.48;100.00;97208.19;1783321;80;21440;-85
2022/09/19 04:05:02;;;;;;;2.67;1.70;;;;;;;7.48;100.00;97208.73;1783360;80;21001;-86
2022/09/19 04:07:29;;;;;;;3.08;1.70;;;;;;;7.45;100.00;97210.11;1783173;80;21351;-84
2022/09/19 04:09:56;;;;;;;2.60;1.98;;;;;;;7.41;100.00;97204.99;1783495;80;21078;-84
2022/09/19 04:12:23;;;;;;;2.75;1.75;;;;;;;7.42;100.00;97205.25;1783275;80;21275;-86
2022/09/19 04:14:49;;;;;;;2.87;1.85;;;;;;;7.45;100.00;97206.61;1783447;80;21374;-85
2022/09/19 04:17:15;;;;;;;4.62;2.08;;;;;;;7.43;100.00;97208.20;1783246;80;21000;-86
2022/09/19 04:19:42;;;;;;;3.85;2.50;;;;;;;7.39;100.00;97204.47;1783518;80;20993;-86
2022/09/19 04:22:09;;;;;;;6.60;2.87;;;;;;;7.38;100.00;97207.45;1783120;80;21434;-87
2022/09/19 04:24:38;;;;;;;3.47;2.47;;;;;;;7.36;100.00;97205.04;1782014;80;21886;-85
2022/09/19 04:27:06;;;;;;;2.72;1.90;;;;;;;7.35;100.00;97210.17;1781460;80;21506;-85
2022/09/19 04:29:31;;;;;;;4.83;2.17;;;;;;;7.38;100.00;97216.88;1781932;80;21018;-86
2022/09/19 04:32:01;;;;;;;3.37;2.00;;;;;;;7.41;100.00;97211.73;1781641;79;20850;-87
2022/09/19 04:34:25;;;;;;;2.87;2.25;;;;;;;7.40;100.00;97212.02;1781283;80;20989;-85
2022/09/19 04:36:51;;;;;;;11.53;2.25;;;;;;;7.38;100.00;97212.30;1781736;80;21129;-84
2022/09/19 04:39:17;;;;;;;2.67;1.70;;;;;;;7.35;100.00;97213.67;1781963;80;20944;-85
2022/09/19 04:41:43;;;;;;;3.27;1.80;;;;;;;7.37;100.00;97216.63;1779638;79;20960;-85
2022/09/19 04:44:10;;;;;;;1.75;1.30;;;;;;;7.40;100.00;97224.14;1776323;80;20957;-85
2022/09/19 04:46:38;;;;;;;2.27;1.50;;;;;;;7.40;100.00;97229.53;1776526;80;21030;-87
2022/09/19 04:49:04;;;;;;;2.30;1.60;;;;;;;7.45;100.00;97238.95;1776336;80;21860;-87
2022/09/19 04:51:31;;;;;;;4.78;2.10;;;;;;;7.45;100.00;97237.06;1776543;79;20950;-87
2022/09/19 04:53:57;;;;;;;2.30;1.47;;;;;;;7.47;100.00;97247.56;1776443;80;20993;-85
2022/09/19 04:56:26;;;;;;;2.40;1.27;;;;;;;7.50;100.00;97245.64;1776510;80;21301;-86
2022/09/19 04:58:51;;;;;;;6.92;3.35;;;;;;;7.50;100.00;97246.99;1776588;80;20961;-87
2022/09/19 05:01:17;;;;;;;6.10;1.90;;;;;;;7.52;100.00;97248.86;1783465;79;21347;-85
2022/09/19 05:03:43;;;;;;;3.98;2.27;;;;;;;7.52;100.00;97253.73;1789793;79;21362;-87
2022/09/19 05:06:11;;;;;;;3.60;2.90;;;;;;;7.54;100.00;97254.80;1776786;80;21009;-87
2022/09/19 05:08:37;;;;;;;3.45;2.35;;;;;;;7.56;100.00;97264.77;1780778;80;21009;-86
2022/09/19 05:11:05;;;;;;;5.47;2.70;;;;;;;7.59;100.00;97266.89;1782444;79;21070;-87
2022/09/19 05:13:33;;;;;;;5.00;3.98;;;;;;;7.64;100.00;97270.92;1782961;79;21118;-86
2022/09/19 05:16:00;;;;;;;4.33;3.30;;;;;;;7.69;100.00;97270.90;1783782;80;21016;-87
2022/09/19 05:18:26;;;;;;;4.22;2.42;;;;;;;7.74;100.00;97270.85;1783279;80;21622;-87
2022/09/19 05:20:54;;;;;;;4.30;3.35;;;;;;;7.78;100.00;97275.16;1783554;80;20925;-86
2022/09/19 05:23:23;;;;;;;4.35;1.62;;;;;;;7.83;100.00;97266.48;1782114;80;20965;-85
2022/09/19 05:25:52;;;;;;;;;;;;;;;7.88;100.00;97265.65;1784446;80;21086;-85
2022/09/19 05:28:19;;;;;;;2.30;1.65;;;;;;;7.90;100.00;97278.30;1782104;79;20148;-85
2022/09/19 05:30:49;;;;;;;2.10;1.42;;;;;;;7.90;100.00;97276.41;1781257;80;21105;-86
2022/09/19 05:33:21;;;;;;;2.92;1.67;;;;;;;7.88;100.00;97272.39;1779906;80;20988;-85
2022/09/19 05:35:43;;;;;;;3.08;2.00;;;;;;;7.85;100.00;97275.62;1786686;79;21392;-85
2022/09/19 05:38:09;;;;;;;2.67;1.80;;;;;;;7.83;100.00;97273.77;1789667;79;21265;-85
2022/09/19 05:40:36;;;;;;;3.80;1.80;;;;;;;7.82;100.00;97280.25;1789641;79;20894;-87
2022/09/19 05:43:02;;;;;;;2.67;1.90;;;;;;;7.84;100.00;97285.61;1774669;80;21443;-86
2022/09/19 05:45:28;;;;;;;3.47;1.75;;;;;;;7.84;100.00;97291.55;1780560;80;20994;-84
2022/09/19 05:48:03;;;;;;;5.47;2.00;;;;;;;7.81;100.00;97289.42;1802351;79;20831;-84
2022/09/19 05:50:30;;;;;;;6.35;2.10;;;;;;;7.82;100.00;97297.78;1785735;78;21399;-87
2022/09/19 05:55:40;;;;;;;4.62;2.05;;;;;;;7.96;100.00;97302.83;1787274;78;20977;-84
2022/09/19 05:58:08;;;;;;;2.92;1.87;;;;;;;8.05;100.00;97305.73;1781077;79;20980;-86
2022/09/19 06:00:37;;;;;;;6.53;2.40;;;;;;;8.07;100.00;97305.70;1768168;79;21401;-85
2022/09/19 06:03:03;;;;;;;5.35;2.95;;;;;;;8.10;100.00;97302.44;1786126;77;21304;-86
2022/09/19 06:05:32;;;;;;;4.50;2.40;;;;;;;8.11;100.00;97302.70;1753104;80;21044;-84
2022/09/19 06:07:58;;;;;;;;;;;;;;;8.14;100.00;97303.50;1790340;79;21060;-87
2022/09/19 06:10:26;;;;;;;5.10;2.40;;;;;;;8.15;100.00;97306.46;1782237;80;20546;-85
2022/09/19 06:12:54;;;;;;;3.12;1.82;;;;;;;8.19;100.00;97312.89;1782895;79;20969;-87
2022/09/19 06:15:20;;;;;;;2.95;2.35;;;;;;;8.25;100.00;97310.97;1777685;79;21190;-85
2022/09/19 06:17:49;;;;;;;3.10;2.10;;;;;;;8.32;100.00;97306.61;1785001;79;20928;-84
2022/09/19 06:20:16;;;;;;;3.00;1.50;;;;;;;8.38;100.00;97314.42;1785587;79;21044;-85
2022/09/19 06:22:42;;;;;;;2.02;1.75;;;;;;;8.43;100.00;97308.97;1776662;79;21004;-87
2022/09/19 06:25:08;;;;;;;6.25;2.15;;;;;;;8.47;100.00;97312.73;1790871;79;21063;-85
2022/09/19 06:27:36;;;;;;;3.30;2.20;;;;;;;8.52;100.00;97314.56;1773081;79;21875;-87
2022/09/19 06:30:05;;;;;;;3.50;2.27;;;;;;;8.59;100.00;97317.75;1774529;79;21057;-87
2022/09/19 06:32:32;;;;;;;3.27;2.45;;;;;;;8.59;100.00;97317.75;1790882;78;21044;-87
2022/09/19 06:34:58;;;;;;;4.42;1.95;;;;;;;8.65;100.00;97321.22;1784888;79;21532;-84
2022/09/19 06:37:24;;;;;;;4.78;1.82;;;;;;;8.72;100.00;97323.05;1784283;79;20975;-84
2022/09/19 06:39:50;;;;;;;4.40;2.22;;;;;;;8.66;100.00;97324.98;1788758;79;21127;-86
2022/09/19 06:42:16;;;;;;;2.80;1.67;;;;;;;8.67;100.00;97318.48;1779626;79;21065;-86
2022/09/19 06:44:41;;;;;;;2.17;1.40;;;;;;;8.65;100.00;97324.72;1785689;78;20962;-84
2022/09/19 06:47:07;;;;;;;2.40;1.47;;;;;;;8.62;100.00;97326.63;1782021;79;21511;-87
2022/09/19 06:49:35;;;;;;;1.98;1.42;;;;;;;8.55;100.00;97337.52;1778794;79;21521;-87
2022/09/19 06:52:02;;;;;;;3.92;2.10;;;;;;;8.55;100.00;97337.52;1780599;79;21310;-84
2022/09/19 06:54:28;;;;;;;2.65;2.00;;;;;;;8.52;100.00;97338.86;1780795;79;21083;-85
2022/09/19 06:56:54;;;;;;;10.43;1.85;;;;;;;8.51;100.00;97341.85;1787229;78;20948;-87
2022/09/19 06:59:20;;;;;;;2.75;1.42;;;;;;;8.48;100.00;97340.53;1782397;79;20964;-85
2022/09/19 07:01:46;;;;;;;3.80;2.22;;;;;;;8.43;100.00;97349.47;1799700;79;20957;-85
2022/09/19 07:04:12;;;;;;;2.75;1.42;;;;;;;8.42;100.00;97344.35;1798095;79;21970;-85
2022/09/19 07:06:38;;;;;;;2.37;1.65;;;;;;;8.41;100.00;97358.94;1779845;79;21069;-84
2022/09/19 07:09:04;;;;;;;2.42;1.62;;;;;;;8.39;100.00;97353.83;1780731;79;20882;-87
2022/09/19 07:11:30;;;;;;;4.25;2.10;;;;;;;8.47;100.00;97359.98;1778311;80;21166;-85
2022/09/19 07:13:56;;;;;;;2.65;1.82;;;;;;;8.47;100.00;97359.98;1781875;79;20984;-84
2022/09/19 07:16:22;;;;;;;2.33;1.60;;;;;;;8.50;100.00;97369.40;1787347;79;21249;-86
2022/09/19 07:18:48;;;;;;;3.62;2.17;;;;;;;8.49;100.00;97377.24;1780678;79;21060;-85
2022/09/19 07:21:14;;;;;;;2.62;1.60;;;;;;;8.49;100.00;97377.24;1784330;79;21529;-87
2022/09/19 07:23:40;;;;;;;8.58;2.70;;;;;;;8.44;100.00;97371.87;1787932;78;21480;-87
2022/09/19 07:26:07;;;;;;;2.98;1.72;;;;;;;8.45;100.00;97378.87;1778834;79;21040;-84
2022/09/19 07:28:33;;;;;;;2.33;1.52;;;;;;;8.46;100.00;97388.07;1780165;79;21167;-87
2022/09/19 07:30:59;;;;;;;5.85;3.00;;;;;;;8.46;100.00;97383.22;1781832;79;20881;-85
2022/09/19 07:33:25;;;;;;;2.60;1.52;;;;;;;8.46;100.00;97381.87;1789399;79;21098;-84
2022/09/19 07:35:54;;;;;;;3.65;2.15;;;;;;;8.45;100.00;97385.08;1789755;79;21008;-87
2022/09/19 07:38:21;;;;;;;4.33;2.45;;;;;;;8.44;100.00;97388.88;1788830;78;21366;-87
2022/09/19 07:40:47;;;;;;;4.45;1.80;;;;;;;8.46;100.00;97390.77;1788726;78;21249;-85
2022/09/19 07:43:15;;;;;;;4.00;2.25;;;;;;;8.51;100.00;97402.61;1793647;78;21097;-87
2022/09/19 07:45:49;;;;;;;3.05;2.33;;;;;;;8.55;100.00;97394.22;1798350;78;20946;-87
2022/09/19 07:48:15;;;;;;;4.03;2.27;;;;;;;8.41;100.00;97405.64;1774375;79;20953;-86
2022/09/19 07:50:42;;;;;;;2.67;1.90;;;;;;;8.41;100.00;97405.64;1764453;79;22393;-84
2022/09/19 07:53:17;;;;;;;4.72;1.70;;;;;;;8.47;100.00;97405.88;1760970;79;21119;-85
2022/09/19 07:55:45;;;;;;;5.00;1.70;;;;;;;8.60;100.00;97403.07;1757043;79;21085;-84
2022/09/19 07:58:11;;;;;;;4.03;2.10;;;;;;;8.72;100.00;97406.23;1754438;79;21624;-85
2022/09/19 08:00:37;;;;;;;4.15;3.08;;;;;;;8.84;100.00;97403.16;1780762;79;20930;-85
2022/09/19 08:03:12;;;;;;;3.67;2.22;;;;;;;8.90;100.00;97397.17;1775364;79;21052;-88
2022/09/19 08:05:40;;;;;;;4.12;2.00;;;;;;;9.02;100.00;97401.65;1780373;79;21879;-87
2022/09/19 08:08:07;;;;;;;4.80;2.15;;;;;;;9.21;100.00;97399.03;1784694;78;20972;-88
2022/09/19 08:10:33;;;;;;;3.22;1.90;;;;;;;9.30;100.00;97396.77;1781338;79;21690;-88
2022/09/19 08:13:03;;;;;;;8.63;2.22;;;;;;;9.38;100.00;97399.94;1779717;79;21673;-85
2022/09/19 08:15:29;;;;;;;2.65;1.98;;;;;;;9.36;100.00;97404.84;1785442;78;20951;-85
2022/09/19 08:18:04;;;;;;;2.92;1.85;;;;;;;9.37;100.00;97407.80;1794189;78;21675;-85
2022/09/19 08:20:39;;;;;;;5.78;2.70;;;;;;;9.38;100.00;97401.30;1781238;79;21016;-88
2022/09/19 08:23:05;;;;;;;4.95;3.62;;;;;;;9.46;100.00;97402.02;1781764;78;21540;-87
2022/09/19 08:25:35;;;;;;;7.05;4.60;;;;;;;9.76;100.00;97400.33;1778083;79;21128;-85
2022/09/19 08:28:03;;;;;;;4.42;3.42;;;;;;;10.68;100.00;97401.26;1777797;79;21135;-85
2022/09/19 08:30:29;;;;;;;5.37;4.00;;;;;;;10.69;100.00;97401.51;1781146;79;21056;-85
2022/09/19 08:33:00;;;;;;;4.85;3.10;;;;;;;10.61;100.00;97399.47;1789867;78;20982;-88
2022/09/19 08:35:27;;;;;;;5.10;4.03;;;;;;;10.78;100.00;97403.55;1772636;79;22291;-89
2022/09/19 08:37:55;;;;;;;5.55;2.37;;;;;;;11.08;99.43;97402.22;1786123;79;21051;-88
2022/09/19 08:40:27;;;;;;;4.37;2.20;;;;;;;11.14;99.41;97399.13;1785295;79;21077;-86
2022/09/19 08:43:32;;;;;;;2.80;2.27;;;;;;;11.21;98.18;97401.47;1782826;77;21366;-85
2022/09/19 08:46:16;;;;;;;6.65;3.33;;;;;;;11.24;97.55;97404.92;1777629;78;21045;-86
2022/09/19 08:48:59;;;;;;;4.28;3.35;;;;;;;11.53;96.52;97406.00;1798109;78;21360;-88
2022/09/19 08:51:33;;;;;;;3.60;2.30;;;;;;;11.65;94.60;97409.05;1782732;79;21065;-86
2022/09/19 08:54:07;;;;;;;4.03;1.82;;;;;;;11.50;93.22;97407.42;1788724;79;21027;-88
2022/09/19 08:56:34;;;;;;;3.55;2.08;;;;;;;11.45;93.68;97407.53;1785241;79;21850;-89
2022/09/19 08:59:02;;;;;;;3.80;1.85;;;;;;;11.28;93.21;97408.11;1732114;79;21031;-85
2022/09/19 09:01:34;;;;;;;6.45;3.60;;;;;;;11.12;94.30;97408.67;1786618;79;26913;-86
2022/09/19 09:04:23;;;;;;;2.92;1.98;;;;;;;11.12;94.62;97404.61;1779432;79;21133;-86
2022/09/19 09:07:14;;;;;;;4.45;1.52;;;;;;;11.19;93.29;97400.93;1784708;78;21069;-88
2022/09/19 09:10:17;;;;;;;3.85;1.30;;;;;;;11.33;93.27;97396.90;1778192;79;21319;-85
2022/09/19 09:13:23;;;;;;;7.45;6.08;;;;;;;11.59;92.04;97393.41;1756771;79;21061;-85
2022/09/19 09:16:25;;;;;;;2.55;1.82;;;;;;;11.65;92.33;97398.19;1777048;79;21045;-86
2022/09/19 09:19:02;;;;;;;2.50;1.50;;;;;;;11.73;92.54;97396.69;1781528;79;21532;-86
2022/09/19 09:21:49;;;;;;;2.37;1.60;;;;;;;11.74;92.94;97392.86;1781623;79;21013;-87
2022/09/19 09:24:26;;;;;;;2.55;1.55;;;;;;;11.73;92.81;97396.69;1779753;79;21241;-88
2022/09/19 09:26:54;;;;;;;4.03;1.40;;;;;;;11.48;92.50;97406.92;1779945;79;21041;-89
2022/09/19 09:29:31;;;;;;;4.10;1.90;;;;;;;11.39;92.68;97405.20;1779064;79;20989;-85
2022/09/19 09:32:13;;;;;;;3.20;1.77;;;;;;;11.42;93.49;97395.91;1778988;79;21202;-85
2022/09/19 09:34:43;;;;;;;4.70;1.57;;;;;;;11.69;92.71;97386.97;1789224;79;21521;-88
2022/09/19 09:37:23;;;;;;;2.20;1.57;;;;;;;11.69;90.50;97389.69;1782640;79;21132;-89
2022/09/19 09:40:00;;;;;;;5.87;2.22;;;;;;;11.69;90.11;97386.97;1770610;80;21397;-85
2022/09/19 09:42:50;;;;;;;4.12;1.70;;;;;;;11.63;90.00;97384.68;1782696;79;21722;-88
2022/09/19 09:45:27;;;;;;;6.67;3.52;;;;;;;11.51;89.96;97387.31;1783363;79;22267;-88
2022/09/19 09:48:28;;;;;;;3.25;1.55;;;;;;;11.25;90.81;97386.19;1786875;79;21061;-88
2022/09/19 09:51:23;;;;;;;2.02;1.27;;;;;;;11.18;90.87;97393.91;1788668;79;21118;-85
2022/09/19 09:57:13;;;;;;;1.35;0.93;;;;;;;11.09;90.74;97405.98;1754975;80;21139;-85
2022/09/19 10:06:13;;;;;;;4.00;1.27;;;;;;;11.90;87.33;97406.97;1781735;79;21358;-86
2022/09/19 10:09:21;;;;;;;2.58;1.67;;;;;;;12.37;86.52;97405.67;1781056;78;21023;-86
2022/09/19 10:12:08;;;;;;;4.08;2.52;;;;;;;12.63;83.33;97403.17;1783773;78;21477;-86
2022/09/19 10:14:36;;;;;;;6.87;3.15;;;;;;;12.84;83.19;97404.31;1774123;79;20977;-89
2022/09/19 10:17:02;;;;;;;2.45;1.42;;;;;;;12.56;82.80;97418.57;1788021;79;21014;-86
2022/09/19 10:19:49;;;;;;;2.05;1.35;;;;;;;12.32;83.84;97450.06;1782268;79;21684;-86
2022/09/19 10:22:16;;;;;;;2.15;1.25;;;;;;;11.50;81.94;97462.23;1784384;79;21190;-85
2022/09/19 10:24:53;;;;;;;1.80;0.90;;;;;;;10.65;86.33;97468.77;1784475;78;21091;-90
2022/09/19 10:27:23;;;;;;;5.45;1.30;;;;;;;10.25;87.36;97468.76;1777774;78;21366;-90
2022/09/19 10:29:58;;;;;;;1.25;0.90;;;;;;;9.90;89.29;97471.58;1779735;79;21155;-91
2022/09/19 10:32:39;;;;;;;1.52;0.90;;;;;;;9.74;89.86;97485.56;1779650;79;21083;-86
2022/09/19 10:35:32;;;;;;;6.95;1.40;;;;;;;9.63;90.32;97488.13;1782166;79;21477;-90
2022/09/19 10:38:16;;;;;;;4.25;2.00;;;;;;;9.55;91.20;97482.79;1779718;79;21041;-89
2022/09/19 10:40:57;;;;;;;2.02;1.30;;;;;;;9.51;93.04;97493.94;1777496;79;21041;-86
2022/09/19 10:43:32;;;;;;;3.00;1.50;;;;;;;9.38;96.49;97494.03;1774197;80;21038;-85
2022/09/19 10:46:05;;;;;;;1.15;0.98;;;;;;;9.37;97.19;97492.42;1777331;79;21476;-86
2022/09/19 10:48:30;;;;;;;2.62;1.30;;;;;;;9.37;97.79;97494.33;1780840;79;21476;-90
2022/09/19 10:50:58;;;;;;;2.83;1.62;;;;;;;9.22;96.64;97504.17;1782006;79;21385;-85
2022/09/19 10:53:30;;;;;;;1.40;1.30;;;;;;;9.35;96.92;97499.22;1782465;79;21154;-86
2022/09/19 10:56:02;;;;;;;2.40;1.65;;;;;;;9.39;98.82;97502.95;1756551;79;21000;-86
2022/09/19 10:58:29;;;;;;;2.98;1.40;;;;;;;9.63;97.21;97497.59;1782754;79;22015;-86
2022/09/19 11:00:58;;;;;;;2.37;1.22;;;;;;;9.61;97.53;97489.22;1780260;79;21069;-89
2022/09/19 11:03:29;;;;;;;2.83;1.50;;;;;;;9.82;96.93;97497.11;1785615;78;21083;-85
2022/09/19 11:06:14;;;;;;;1.62;0.88;;;;;;;10.01;96.36;97494.49;1780109;79;21024;-86
2022/09/19 11:08:50;;;;;;;4.42;4.03;;;;;;;10.04;94.47;97496.61;1781514;78;21027;-89
2022/09/19 11:11:37;;;;;;;2.08;1.10;;;;;;;10.25;95.52;97497.19;1781221;79;21420;-90
2022/09/19 11:14:31;;;;;;;6.10;3.52;;;;;;;10.37;94.07;97494.89;1781235;79;21466;-89
2022/09/19 11:17:47;;;;;;;2.52;1.32;;;;;;;10.56;95.14;97490.84;1783105;79;20960;-86
2022/09/19 11:20:50;;;;;;;2.10;1.87;;;;;;;10.71;94.16;97491.98;1779065;79;21020;-89
2022/09/19 11:23:52;;;;;;;4.05;1.32;;;;;;;10.97;95.00;97480.22;1780074;79;21096;-86
2022/09/19 11:26:43;;;;;;;4.33;2.55;;;;;;;10.83;93.00;97490.98;1786407;79;21258;-86
2022/09/19 11:29:35;;;;;;;2.50;1.92;;;;;;;10.88;94.01;97490.11;1780688;79;21436;-90
2022/09/19 11:32:15;;;;;;;1.80;1.25;;;;;;;10.98;93.83;97498.09;1778914;79;21022;-86
2022/09/19 11:35:02;;;;;;;1.95;1.60;;;;;;;11.28;94.04;97490.83;1775472;78;21485;-90
2022/09/19 11:38:15;;;;;;;1.72;1.35;;;;;;;11.44;92.65;97492.70;1717417;82;21643;-89
2022/09/19 11:41:14;;;;;;;1.47;1.00;;;;;;;11.67;90.52;97488.23;1750749;80;21107;-86
2022/09/19 11:43:56;;;;;;;3.00;1.20;;;;;;;11.67;91.11;97487.44;1728197;81;21102;-89
2022/09/19 11:46:49;;;;;;;2.10;1.20;;;;;;;11.83;91.91;97483.38;1749984;81;21102;-86
2022/09/19 11:49:46;;;;;;;3.17;1.62;;;;;;;11.46;90.89;97495.95;1771268;79;20989;-86
2022/09/19 11:52:29;;;;;;;2.08;1.25;;;;;;;11.42;90.56;97496.83;1780270;79;21082;-86
2022/09/19 11:55:16;;;;;;;1.67;1.30;;;;;;;11.34;89.41;97502.94;1784281;79;21682;-90
2022/09/19 11:58:04;;;;;;;1.05;0.72;;;;;;;11.09;88.42;97508.21;1793208;78;20961;-86
2022/09/19 12:00:35;;;;;;;1.62;1.15;;;;;;;10.71;87.62;97502.27;1774126;79;21050;-88
2022/09/19 12:03:18;;;;;;;0.50;0.50;;;;;;;10.57;89.07;97506.80;1784285;79;21953;-86
2022/09/19 12:06:14;;;;;;;1.72;1.10;;;;;;;10.40;88.92;97510.00;1761633;79;21033;-86
2022/09/19 12:08:55;;;;;;;1.47;0.85;;;;;;;10.18;89.39;97508.37;1747022;79;21154;-89
2022/09/19 12:11:46;;;;;;;1.37;1.02;;;;;;;9.98;89.91;97494.50;1780765;79;21034;-89
2022/09/19 12:14:29;;;;;;;1.00;0.80;;;;;;;9.92;90.55;97490.81;1778843;78;21078;-89
2022/09/19 12:17:25;;;;;;;2.30;1.37;;;;;;;9.97;90.88;97491.54;1785944;79;20998;-88
2022/09/19 12:19:57;;;;;;;1.70;1.17;;;;;;;10.10;91.18;97500.88;1786086;79;21106;-86